Time,TemperatureF,DewpointF,PressureIn,WindDirection,WindDirectionDegrees,WindSpeedMPH,WindSpeedGustMPH,Humidity,HourlyPrecipIn,Conditions,Clouds,dailyrainin,SolarRadiationWatts/m^2,SoftwareType,DateUTC
2013-03-21 00:00:00,29.7,-3.5,29.89,SW,224,0.0,0.0,23,0.00,,---,0.00,0.00,VWS V14.00,2013-03-21 04:00:00,
2013-03-21 00:05:00,29.8,-3.5,29.89,SW,224,0.0,2.0,23,0.00,,---,0.00,0.00,VWS V14.00,2013-03-21 04:05:00,
2013-03-21 00:10:00,30.0,-3.3,29.90,SW,224,0.0,1.0,23,0.00,,---,0.00,0.00,VWS V14.00,2013-03-21 04:10:00,
2013-03-21 00:15:00,30.1,-3.2,29.89,SW,224,1.0,2.0,23,0.00,,---,0.00,0.00,VWS V14.00,2013-03-21 04:15:00,
2013-03-21 00:20:00,30.3,-4.0,29.89,SW,224,0.0,0.0,22,0.00,,---,0.00,0.00,VWS V14.00,2013-03-21 04:20:00,
2013-03-21 00:25:00,30.3,-4.0,29.89,SW,224,0.0,0.0,22,0.00,,---,0.00,0.00,VWS V14.00,2013-03-21 04:25:00,
2013-03-21 00:30:00,30.3,-4.0,29.89,SW,224,0.0,0.0,22,0.00,,---,0.00,0.00,VWS V14.00,2013-03-21 04:30:00,
2013-03-21 00:35:00,30.1,-2.3,29.90,SW,224,0.0,0.0,24,0.00,,---,0.00,0.00,VWS V14.00,2013-03-21 04:35:00,
2013-03-21 00:40:00,30.0,-2.4,29.90,SW,224,0.0,1.0,24,0.00,,---,0.00,0.00,VWS V14.00,2013-03-21 04:40:00,
2013-03-21 00:45:00,30.0,-2.4,29.90,SW,224,0.0,0.0,24,0.00,,---,0.00,0.00,VWS V14.00,2013-03-21 04:45:00,
2013-03-21 00:50:00,29.8,-2.6,29.90,SW,224,0.0,0.0,24,0.00,,---,0.00,0.00,VWS V14.00,2013-03-21 04:50:00,
2013-03-21 00:55:00,29.8,-1.7,29.90,SW,224,0.0,0.0,25,0.00,,---,0.00,0.00,VWS V14.00,2013-03-21 04:55:00,
2013-03-21 01:00:00,29.8,-1.7,29.90,SW,224,0.0,0.0,25,0.00,,---,0.00,0.00,VWS V14.00,2013-03-21 05:00:00,
2013-03-21 01:05:00,29.8,-1.7,29.90,SW,224,0.0,0.0,25,0.00,,---,0.00,0.00,VWS V14.00,2013-03-21 05:05:00,
2013-03-21 01:10:00,29.8,-1.7,29.90,SW,224,0.0,0.0,25,0.00,,---,0.00,0.00,VWS V14.00,2013-03-21 05:10:00,
2013-03-21 01:15:00,30.0,-1.5,29.90,SW,224,0.0,0.0,25,0.00,,---,0.00,0.00,VWS V14.00,2013-03-21 05:15:00,
2013-03-21 01:20:00,30.0,-1.5,29.90,SW,224,0.0,0.0,25,0.00,,---,0.00,0.00,VWS V14.00,2013-03-21 05:20:00,
2013-03-21 01:25:00,30.0,-1.5,29.89,SW,224,0.0,0.0,25,0.00,,---,0.00,0.00,VWS V14.00,2013-03-21 05:25:00,
2013-03-21 01:30:00,30.0,-0.7,29.89,SW,224,0.0,0.0,26,0.00,,---,0.00,0.00,VWS V14.00,2013-03-21 05:30:00,
2013-03-21 01:35:00,30.1,-0.6,29.89,SW,224,0.0,0.0,26,0.00,,---,0.00,0.00,VWS V14.00,2013-03-21 05:35:00,
2013-03-21 01:40:00,30.0,-0.7,29.89,SW,224,0.0,0.0,26,0.00,,---,0.00,0.00,VWS V14.00,2013-03-21 05:40:00,
2013-03-21 01:45:00,30.0,0.1,29.89,SW,224,0.0,0.0,27,0.00,,---,0.00,0.00,VWS V14.00,2013-03-21 05:45:00,
2013-03-21 01:50:00,29.8,-0.1,29.89,SW,224,0.0,0.0,27,0.00,,---,0.00,0.00,VWS V14.00,2013-03-21 05:50:00,
2013-03-21 01:55:00,29.7,-0.2,29.89,SW,224,0.0,0.0,27,0.00,,---,0.00,0.00,VWS V14.00,2013-03-21 05:55:00,
2013-03-21 02:00:00,29.7,-0.2,29.89,SW,224,0.0,0.0,27,0.00,,---,0.00,0.00,VWS V14.00,2013-03-21 06:00:00,
2013-03-21 02:05:00,29.7,-0.2,29.89,SW,224,0.0,0.0,27,0.00,,---,0.00,0.00,VWS V14.00,2013-03-21 06:05:00,
2013-03-21 02:10:00,29.8,0.7,29.88,SW,224,0.0,0.0,28,0.00,,---,0.00,0.00,VWS V14.00,2013-03-21 06:10:00,
2013-03-21 02:15:00,29.8,0.7,29.88,SW,224,1.0,3.0,28,0.00,,---,0.00,0.00,VWS V14.00,2013-03-21 06:15:00,
2013-03-21 02:20:00,30.1,0.9,29.88,SW,224,0.0,0.0,28,0.00,,---,0.00,0.00,VWS V14.00,2013-03-21 06:20:00,
2013-03-21 02:25:00,30.1,1.7,29.87,SW,224,0.0,0.0,29,0.00,,---,0.00,0.00,VWS V14.00,2013-03-21 06:25:00,
2013-03-21 02:30:00,30.1,1.7,29.88,SW,224,0.0,0.0,29,0.00,,---,0.00,0.00,VWS V14.00,2013-03-21 06:30:00,
2013-03-21 02:35:00,30.1,2.4,29.88,SW,224,0.0,0.0,30,0.00,,---,0.00,0.00,VWS V14.00,2013-03-21 06:35:00,
2013-03-21 02:40:00,30.0,3.7,29.88,SW,224,2.0,3.0,32,0.00,,---,0.00,0.00,VWS V14.00,2013-03-21 06:40:00,
2013-03-21 02:45:00,30.0,3.7,29.88,NW,311,1.0,2.0,32,0.00,,---,0.00,0.00,VWS V14.00,2013-03-21 06:45:00,
2013-03-21 02:50:00,30.0,5.1,29.87,NW,304,0.0,2.0,34,0.00,,---,0.00,0.00,VWS V14.00,2013-03-21 06:50:00,
2013-03-21 02:55:00,29.8,6.1,29.87,SW,232,4.0,4.0,36,0.00,,---,0.00,0.00,VWS V14.00,2013-03-21 06:55:00,
2013-03-21 03:00:00,29.8,7.3,29.86,SW,225,0.0,2.0,38,0.00,,---,0.00,0.00,VWS V14.00,2013-03-21 07:00:00,
2013-03-21 03:05:00,29.7,8.4,29.86,SW,225,0.0,1.0,40,0.00,,---,0.00,0.00,VWS V14.00,2013-03-21 07:05:00,
2013-03-21 03:10:00,29.5,8.7,29.85,SW,225,1.0,3.0,41,0.00,,---,0.00,0.00,VWS V14.00,2013-03-21 07:10:00,
2013-03-21 03:15:00,29.4,9.2,29.85,SW,225,0.0,0.0,42,0.00,,---,0.00,0.00,VWS V14.00,2013-03-21 07:15:00,
2013-03-21 03:20:00,29.4,9.7,29.85,SW,225,0.0,1.0,43,0.00,,---,0.00,0.00,VWS V14.00,2013-03-21 07:20:00,
2013-03-21 03:25:00,29.3,10.1,29.85,SW,225,0.0,0.0,44,0.00,,---,0.00,0.00,VWS V14.00,2013-03-21 07:25:00,
2013-03-21 03:30:00,29.1,9.4,29.84,SW,225,0.0,0.0,43,0.00,,---,0.00,0.00,VWS V14.00,2013-03-21 07:30:00,
2013-03-21 03:35:00,29.1,9.9,29.85,SW,225,0.0,0.0,44,0.00,,---,0.00,0.00,VWS V14.00,2013-03-21 07:35:00,
2013-03-21 03:40:00,29.0,9.8,29.85,SW,225,0.0,0.0,44,0.00,,---,0.00,0.00,VWS V14.00,2013-03-21 07:40:00,
2013-03-21 03:45:00,29.0,10.3,29.85,SW,225,0.0,0.0,45,0.00,,---,0.00,0.00,VWS V14.00,2013-03-21 07:45:00,
2013-03-21 03:50:00,28.8,10.1,29.85,SW,225,0.0,0.0,45,0.00,,---,0.00,0.00,VWS V14.00,2013-03-21 07:50:00,
2013-03-21 03:55:00,28.8,10.6,29.85,SW,225,0.0,1.0,46,0.00,,---,0.00,0.00,VWS V14.00,2013-03-21 07:55:00,
2013-03-21 04:00:00,28.8,10.6,29.84,SW,225,1.0,1.0,46,0.00,,---,0.00,0.00,VWS V14.00,2013-03-21 08:00:00,
2013-03-21 04:05:00,28.8,10.6,29.85,SW,225,0.0,0.0,46,0.00,,---,0.00,0.00,VWS V14.00,2013-03-21 08:05:00,
2013-03-21 04:10:00,28.8,11.1,29.85,SW,225,0.0,0.0,47,0.00,,---,0.00,0.00,VWS V14.00,2013-03-21 08:10:00,
2013-03-21 04:15:00,28.8,11.1,29.84,SW,225,0.0,0.0,47,0.00,,---,0.00,0.00,VWS V14.00,2013-03-21 08:15:00,
2013-03-21 04:20:00,28.8,11.1,29.84,SW,225,0.0,0.0,47,0.00,,---,0.00,0.00,VWS V14.00,2013-03-21 08:20:00,
2013-03-21 04:25:00,28.8,11.6,29.84,SW,225,1.0,1.0,48,0.00,,---,0.00,0.00,VWS V14.00,2013-03-21 08:25:00,
2013-03-21 04:30:00,28.8,11.6,29.84,SW,225,0.0,0.0,48,0.00,,---,0.00,0.00,VWS V14.00,2013-03-21 08:30:00,
2013-03-21 04:35:00,28.8,11.6,29.84,SW,225,0.0,0.0,48,0.00,,---,0.00,0.00,VWS V14.00,2013-03-21 08:35:00,
2013-03-21 04:40:00,28.7,11.5,29.84,SW,225,0.0,0.0,48,0.00,,---,0.00,0.00,VWS V14.00,2013-03-21 08:40:00,
2013-03-21 04:45:00,28.7,12.0,29.84,SW,225,0.0,0.0,49,0.00,,---,0.00,0.00,VWS V14.00,2013-03-21 08:45:00,
2013-03-21 04:50:00,28.7,12.0,29.84,SW,225,0.0,0.0,49,0.00,,---,0.00,0.00,VWS V14.00,2013-03-21 08:50:00,
2013-03-21 04:55:00,28.7,12.0,29.83,SW,225,0.0,0.0,49,0.00,,---,0.00,0.00,VWS V14.00,2013-03-21 08:55:00,
2013-03-21 05:00:00,28.7,12.0,29.83,SW,225,0.0,0.0,49,0.00,,---,0.00,0.00,VWS V14.00,2013-03-21 09:00:00,
2013-03-21 05:05:00,28.7,12.4,29.83,SW,225,0.0,0.0,50,0.00,,---,0.00,0.00,VWS V14.00,2013-03-21 09:05:00,
2013-03-21 05:10:00,28.5,12.2,29.83,SW,225,0.0,0.0,50,0.00,,---,0.00,0.00,VWS V14.00,2013-03-21 09:10:00,
2013-03-21 05:15:00,28.4,11.2,29.83,SW,225,0.0,0.0,48,0.00,,---,0.00,0.00,VWS V14.00,2013-03-21 09:15:00,
2013-03-21 05:20:00,28.2,9.6,29.83,SW,225,0.0,0.0,45,0.00,,---,0.00,0.00,VWS V14.00,2013-03-21 09:20:00,
2013-03-21 05:25:00,28.2,9.1,29.83,SW,225,0.0,1.0,44,0.00,,---,0.00,0.00,VWS V14.00,2013-03-21 09:25:00,
2013-03-21 05:30:00,28.2,9.1,29.83,SW,225,0.0,0.0,44,0.00,,---,0.00,0.00,VWS V14.00,2013-03-21 09:30:00,
2013-03-21 05:35:00,28.2,9.1,29.83,SW,225,0.0,0.0,44,0.00,,---,0.00,0.00,VWS V14.00,2013-03-21 09:35:00,
2013-03-21 05:40:00,28.2,9.1,29.83,SW,225,0.0,0.0,44,0.00,,---,0.00,0.00,VWS V14.00,2013-03-21 09:40:00,
2013-03-21 05:45:00,28.2,9.1,29.83,SW,225,0.0,0.0,44,0.00,,---,0.00,0.00,VWS V14.00,2013-03-21 09:45:00,
2013-03-21 05:50:00,28.2,9.1,29.83,SW,225,0.0,0.0,44,0.00,,---,0.00,0.00,VWS V14.00,2013-03-21 09:50:00,
2013-03-21 05:55:00,28.2,9.1,29.84,SW,225,0.0,0.0,44,0.00,,---,0.00,0.00,VWS V14.00,2013-03-21 09:55:00,
2013-03-21 06:00:00,28.2,8.6,29.84,SW,225,0.0,0.0,43,0.00,,---,0.00,0.00,VWS V14.00,2013-03-21 10:00:00,
2013-03-21 06:05:00,28.2,8.6,29.84,SW,225,0.0,0.0,43,0.00,,---,0.00,0.00,VWS V14.00,2013-03-21 10:05:00,
2013-03-21 06:10:00,28.1,8.5,29.84,SW,225,0.0,0.0,43,0.00,,---,0.00,0.00,VWS V14.00,2013-03-21 10:10:00,
2013-03-21 06:15:00,28.1,8.5,29.85,SW,225,2.0,2.0,43,0.00,,---,0.00,0.00,VWS V14.00,2013-03-21 10:15:00,
2013-03-21 06:20:00,28.1,8.0,29.85,SW,225,0.0,0.0,42,0.00,,---,0.00,0.00,VWS V14.00,2013-03-21 10:20:00,
2013-03-21 06:25:00,28.2,8.1,29.85,SW,225,0.0,0.0,42,0.00,,---,0.00,0.00,VWS V14.00,2013-03-21 10:25:00,
2013-03-21 06:30:00,28.2,8.1,29.84,SW,225,0.0,0.0,42,0.00,,---,0.00,0.00,VWS V14.00,2013-03-21 10:30:00,
2013-03-21 06:35:00,28.2,7.5,29.84,SW,224,0.0,0.0,41,0.00,,---,0.00,0.00,VWS V14.00,2013-03-21 10:35:00,
2013-03-21 06:40:00,28.2,7.0,29.84,SW,224,1.0,3.0,40,0.00,,---,0.00,0.00,VWS V14.00,2013-03-21 10:40:00,
2013-03-21 06:45:00,28.1,6.9,29.84,SW,224,0.0,0.0,40,0.00,,---,0.00,0.00,VWS V14.00,2013-03-21 10:45:00,
2013-03-21 06:50:00,28.1,6.9,29.84,SW,224,0.0,2.0,40,0.00,,---,0.00,0.00,VWS V14.00,2013-03-21 10:50:00,
2013-03-21 06:55:00,27.9,7.3,29.84,SW,224,0.0,0.0,41,0.00,,---,0.00,0.00,VWS V14.00,2013-03-21 10:55:00,
2013-03-21 07:00:00,27.9,7.3,29.85,SW,224,0.0,0.0,41,0.00,,---,0.00,0.00,VWS V14.00,2013-03-21 11:00:00,
2013-03-21 07:05:00,27.9,7.3,29.85,SW,224,0.0,0.0,41,0.00,,---,0.00,0.00,VWS V14.00,2013-03-21 11:05:00,
2013-03-21 07:10:00,27.8,7.2,29.85,SW,224,0.0,0.0,41,0.00,,---,0.00,0.00,VWS V14.00,2013-03-21 11:10:00,
2013-03-21 07:15:00,27.8,7.2,29.85,SW,224,0.0,0.0,41,0.00,,---,0.00,5.00,VWS V14.00,2013-03-21 11:15:00,
2013-03-21 07:20:00,27.8,7.7,29.85,SW,224,0.0,0.0,42,0.00,,---,0.00,9.00,VWS V14.00,2013-03-21 11:20:00,
2013-03-21 07:25:00,27.8,7.7,29.85,SW,224,0.0,0.0,42,0.00,,---,0.00,14.00,VWS V14.00,2013-03-21 11:25:00,
2013-03-21 07:30:00,27.8,7.2,29.85,SW,223,0.0,0.0,41,0.00,,---,0.00,14.00,VWS V14.00,2013-03-21 11:30:00,
2013-03-21 07:35:00,27.8,7.7,29.86,SW,223,0.0,0.0,42,0.00,,---,0.00,16.00,VWS V14.00,2013-03-21 11:35:00,
2013-03-21 07:40:00,27.8,7.7,29.85,SW,223,2.0,2.0,42,0.00,,---,0.00,23.00,VWS V14.00,2013-03-21 11:40:00,
2013-03-21 07:45:00,27.8,7.7,29.85,SW,223,0.0,0.0,42,0.00,,---,0.00,28.00,VWS V14.00,2013-03-21 11:45:00,
2013-03-21 07:50:00,27.8,8.2,29.85,SW,223,0.0,0.0,43,0.00,,---,0.00,39.00,VWS V14.00,2013-03-21 11:50:00,
2013-03-21 07:55:00,27.8,8.7,29.85,SW,223,1.0,1.0,44,0.00,,---,0.00,40.00,VWS V14.00,2013-03-21 11:55:00,
2013-03-21 08:00:00,27.9,8.8,29.85,SW,223,0.0,0.0,44,0.00,,---,0.00,32.00,VWS V14.00,2013-03-21 12:00:00,
2013-03-21 08:05:00,27.8,9.2,29.85,SW,223,0.0,0.0,45,0.00,,---,0.00,32.00,VWS V14.00,2013-03-21 12:05:00,
2013-03-21 08:10:00,27.8,9.7,29.85,SW,223,1.0,1.0,46,0.00,,---,0.00,37.00,VWS V14.00,2013-03-21 12:10:00,
2013-03-21 08:15:00,27.6,9.5,29.86,SW,223,0.0,0.0,46,0.00,,---,0.00,39.00,VWS V14.00,2013-03-21 12:15:00,
2013-03-21 08:20:00,27.6,10.0,29.85,SW,223,1.0,1.0,47,0.00,,---,0.00,46.00,VWS V14.00,2013-03-21 12:20:00,
2013-03-21 08:25:00,27.6,10.5,29.85,SW,223,0.0,1.0,48,0.00,,---,0.00,58.00,VWS V14.00,2013-03-21 12:25:00,
2013-03-21 08:30:00,27.6,10.9,29.85,SW,223,0.0,1.0,49,0.00,,---,0.00,79.00,VWS V14.00,2013-03-21 12:30:00,
2013-03-21 08:35:00,27.6,10.9,29.85,SW,223,1.0,4.0,49,0.00,,---,0.00,95.00,VWS V14.00,2013-03-21 12:35:00,
2013-03-21 08:40:00,27.8,10.7,29.85,SW,223,0.0,2.0,48,0.00,,---,0.00,118.00,VWS V14.00,2013-03-21 12:40:00,
2013-03-21 08:45:00,27.8,10.7,29.84,NNE,17,1.0,4.0,48,0.00,,---,0.00,114.00,VWS V14.00,2013-03-21 12:45:00,
2013-03-21 08:50:00,27.6,10.0,29.84,NNE,32,2.0,5.0,47,0.00,,---,0.00,134.00,VWS V14.00,2013-03-21 12:50:00,
2013-03-21 08:55:00,27.6,9.5,29.84,NNE,32,0.0,3.0,46,0.00,,---,0.00,121.00,VWS V14.00,2013-03-21 12:55:00,
2013-03-21 09:00:00,27.6,9.5,29.83,NNE,14,3.0,4.0,46,0.00,,---,0.00,109.00,VWS V14.00,2013-03-21 13:00:00,
2013-03-21 09:05:00,27.6,8.6,29.84,NNW,343,1.0,4.0,44,0.00,,---,0.00,146.00,VWS V14.00,2013-03-21 13:05:00,
2013-03-21 09:10:00,27.8,7.7,29.84,North,355,0.0,2.0,42,0.00,,---,0.00,148.00,VWS V14.00,2013-03-21 13:10:00,
2013-03-21 09:15:00,28.1,8.0,29.84,North,360,3.0,3.0,42,0.00,,---,0.00,100.00,VWS V14.00,2013-03-21 13:15:00,
2013-03-21 09:20:00,28.2,6.4,29.84,NE,42,2.0,3.0,39,0.00,,---,0.00,141.00,VWS V14.00,2013-03-21 13:20:00,
2013-03-21 09:25:00,28.4,6.1,29.84,NNE,31,0.0,1.0,38,0.00,,---,0.00,172.00,VWS V14.00,2013-03-21 13:25:00,
2013-03-21 09:30:00,28.4,4.2,29.83,NNE,30,2.0,2.0,35,0.00,,---,0.00,176.00,VWS V14.00,2013-03-21 13:30:00,
2013-03-21 09:35:00,28.4,3.0,29.83,North,360,5.0,5.0,33,0.00,,---,0.00,181.00,VWS V14.00,2013-03-21 13:35:00,
2013-03-21 09:40:00,28.5,3.1,29.83,NNE,15,2.0,4.0,33,0.00,,---,0.00,163.00,VWS V14.00,2013-03-21 13:40:00,
2013-03-21 09:45:00,29.0,2.8,29.83,ENE,66,1.0,2.0,32,0.00,,---,0.00,193.00,VWS V14.00,2013-03-21 13:45:00,
2013-03-21 09:50:00,29.3,1.7,29.83,NE,56,0.0,3.0,30,0.00,,---,0.00,206.00,VWS V14.00,2013-03-21 13:50:00,
2013-03-21 09:55:00,29.5,1.2,29.83,NE,54,4.0,4.0,29,0.00,,---,0.00,204.00,VWS V14.00,2013-03-21 13:55:00,
2013-03-21 10:00:00,29.7,1.4,29.83,NE,50,4.0,6.0,29,0.00,,---,0.00,227.00,VWS V14.00,2013-03-21 14:00:00,
2013-03-21 10:05:00,30.0,1.6,29.82,NE,44,1.0,4.0,29,0.00,,---,0.00,223.00,VWS V14.00,2013-03-21 14:05:00,
2013-03-21 10:10:00,30.0,0.1,29.82,NNE,23,3.0,6.0,27,0.00,,---,0.00,169.00,VWS V14.00,2013-03-21 14:10:00,
2013-03-21 10:15:00,30.0,0.1,29.82,ENE,68,3.0,4.0,27,0.00,,---,0.00,272.00,VWS V14.00,2013-03-21 14:15:00,
2013-03-21 10:20:00,30.4,-0.4,29.82,ENE,57,3.0,3.0,26,0.00,,---,0.00,308.00,VWS V14.00,2013-03-21 14:20:00,
2013-03-21 10:25:00,30.6,-1.0,29.82,ENE,71,6.0,6.0,25,0.00,,---,0.00,253.00,VWS V14.00,2013-03-21 14:25:00,
2013-03-21 10:30:00,30.6,-1.9,29.82,NE,46,3.0,4.0,24,0.00,,---,0.00,248.00,VWS V14.00,2013-03-21 14:30:00,
2013-03-21 10:35:00,30.7,-1.8,29.81,NE,36,0.0,3.0,24,0.00,,---,0.00,176.00,VWS V14.00,2013-03-21 14:35:00,
2013-03-21 10:40:00,30.9,-2.5,29.82,North,11,1.0,2.0,23,0.00,,---,0.00,165.00,VWS V14.00,2013-03-21 14:40:00,
2013-03-21 10:45:00,31.2,-3.2,29.81,NNE,26,3.0,4.0,22,0.00,,---,0.00,246.00,VWS V14.00,2013-03-21 14:45:00,
2013-03-21 10:50:00,31.5,-3.0,29.81,East,92,2.0,3.0,22,0.00,,---,0.00,302.00,VWS V14.00,2013-03-21 14:50:00,
2013-03-21 10:55:00,31.8,-3.7,29.81,ENE,66,2.0,3.0,21,0.00,,---,0.00,290.00,VWS V14.00,2013-03-21 14:55:00,
2013-03-21 11:00:00,31.6,-2.9,29.81,NW,314,0.0,1.0,22,0.00,,---,0.00,230.00,VWS V14.00,2013-03-21 15:00:00,
2013-03-21 11:05:00,31.6,-2.9,29.81,NW,316,0.0,1.0,22,0.00,,---,0.00,250.00,VWS V14.00,2013-03-21 15:05:00,
2013-03-21 11:10:00,31.8,-3.7,29.81,NW,316,2.0,2.0,21,0.00,,---,0.00,315.00,VWS V14.00,2013-03-21 15:10:00,
2013-03-21 11:15:00,31.8,-4.7,29.81,NW,305,4.0,5.0,20,0.00,,---,0.00,221.00,VWS V14.00,2013-03-21 15:15:00,
2013-03-21 11:20:00,31.8,-3.7,29.80,NW,317,2.0,4.0,21,0.00,,---,0.00,251.00,VWS V14.00,2013-03-21 15:20:00,
2013-03-21 11:25:00,31.6,-2.9,29.80,NNE,14,2.0,3.0,22,0.00,,---,0.00,301.00,VWS V14.00,2013-03-21 15:25:00,
2013-03-21 11:30:00,31.6,-4.9,29.80,NNW,333,5.0,5.0,20,0.00,,---,0.00,364.00,VWS V14.00,2013-03-21 15:30:00,
2013-03-21 11:35:00,31.9,-4.6,29.80,NNW,327,4.0,4.0,20,0.00,,---,0.00,404.00,VWS V14.00,2013-03-21 15:35:00,
2013-03-21 11:40:00,32.2,-5.4,29.80,NNE,15,3.0,3.0,19,0.00,,---,0.00,336.00,VWS V14.00,2013-03-21 15:40:00,
2013-03-21 11:45:00,32.4,-5.2,29.80,NE,34,4.0,4.0,19,0.00,,---,0.00,380.00,VWS V14.00,2013-03-21 15:45:00,
2013-03-21 11:50:00,32.1,-4.4,29.79,NW,324,2.0,3.0,20,0.00,,---,0.00,492.00,VWS V14.00,2013-03-21 15:50:00,
2013-03-21 11:55:00,32.2,-5.4,29.79,NE,41,1.0,2.0,19,0.00,,---,0.00,573.00,VWS V14.00,2013-03-21 15:55:00,
2013-03-21 12:00:00,32.5,-4.1,29.79,NNE,32,2.0,2.0,20,0.00,,---,0.00,729.00,VWS V14.00,2013-03-21 16:00:00,
2013-03-21 12:05:00,33.5,-4.3,29.78,ENE,67,1.0,2.0,19,0.00,,---,0.00,473.00,VWS V14.00,2013-03-21 16:05:00,
2013-03-21 12:10:00,33.7,-6.5,29.78,NE,37,0.0,1.0,17,0.00,,---,0.00,387.00,VWS V14.00,2013-03-21 16:10:00,
2013-03-21 12:15:00,34.0,-7.5,29.77,NE,36,0.0,2.0,16,0.00,,---,0.00,473.00,VWS V14.00,2013-03-21 16:15:00,
2013-03-21 12:20:00,34.4,-9.9,29.77,WSW,252,1.0,3.0,14,0.00,,---,0.00,817.00,VWS V14.00,2013-03-21 16:20:00,
2013-03-21 12:25:00,35.3,-12.2,29.77,NNE,14,2.0,3.0,12,0.00,,---,0.00,738.00,VWS V14.00,2013-03-21 16:25:00,
2013-03-21 12:30:00,35.5,-12.1,29.76,NNE,33,3.0,5.0,12,0.00,,---,0.00,728.00,VWS V14.00,2013-03-21 16:30:00,
2013-03-21 12:35:00,35.5,-13.8,29.76,East,91,2.0,6.0,11,0.00,,---,0.00,758.00,VWS V14.00,2013-03-21 16:35:00,
2013-03-21 12:40:00,35.0,-16.1,29.76,NW,313,5.0,6.0,10,0.00,,---,0.00,301.00,VWS V14.00,2013-03-21 16:40:00,
2013-03-21 12:45:00,34.7,-12.7,29.75,NNE,33,4.0,10.0,12,0.00,,---,0.00,621.00,VWS V14.00,2013-03-21 16:45:00,
2013-03-21 12:50:00,35.0,-12.5,29.75,North,11,2.0,4.0,12,0.00,,---,0.00,802.00,VWS V14.00,2013-03-21 16:50:00,
2013-03-21 12:55:00,35.3,-17.9,29.74,NW,321,0.0,6.0,9,0.00,,---,0.00,696.00,VWS V14.00,2013-03-21 16:55:00,
2013-03-21 13:00:00,35.8,-15.5,29.74,North,5,3.0,7.0,10,0.00,,---,0.00,707.00,VWS V14.00,2013-03-21 17:00:00,
2013-03-21 13:05:00,35.9,-19.7,29.74,NNW,334,2.0,6.0,8,0.00,,---,0.00,577.00,VWS V14.00,2013-03-21 17:05:00,
2013-03-21 13:10:00,35.6,-22.5,29.73,NNW,340,1.0,5.0,7,0.00,,---,0.00,360.00,VWS V14.00,2013-03-21 17:10:00,
2013-03-21 13:15:00,35.9,-19.7,29.74,NNW,336,2.0,6.0,8,0.00,,---,0.00,466.00,VWS V14.00,2013-03-21 17:15:00,
2013-03-21 13:20:00,35.6,-19.9,29.73,NNE,22,1.0,5.0,8,0.00,,---,0.00,301.00,VWS V14.00,2013-03-21 17:20:00,
2013-03-21 13:25:00,35.2,-20.2,29.73,NNW,328,7.0,10.0,8,0.00,,---,0.00,272.00,VWS V14.00,2013-03-21 17:25:00,
2013-03-21 13:30:00,34.9,-20.5,29.73,NW,309,3.0,6.0,8,0.00,,---,0.00,257.00,VWS V14.00,2013-03-21 17:30:00,
2013-03-21 13:35:00,34.9,-20.5,29.73,North,355,2.0,5.0,8,0.00,,---,0.00,339.00,VWS V14.00,2013-03-21 17:35:00,
2013-03-21 13:40:00,35.0,-20.4,29.72,West,279,5.0,7.0,8,0.00,,---,0.00,341.00,VWS V14.00,2013-03-21 17:40:00,
2013-03-21 13:45:00,35.0,-20.4,29.72,West,272,3.0,4.0,8,0.00,,---,0.00,388.00,VWS V14.00,2013-03-21 17:45:00,
2013-03-21 13:50:00,34.9,-29.3,29.72,NNE,24,4.0,7.0,5,0.00,,---,0.00,408.00,VWS V14.00,2013-03-21 17:50:00,
2013-03-21 13:55:00,35.0,-20.4,29.72,North,355,3.0,6.0,8,0.00,,---,0.00,494.00,VWS V14.00,2013-03-21 17:55:00,
2013-03-21 14:00:00,35.3,-25.6,29.72,WNW,290,8.0,8.0,6,0.00,,---,0.00,552.00,VWS V14.00,2013-03-21 18:00:00,
2013-03-21 14:05:00,35.8,-22.3,29.71,NNW,332,3.0,7.0,7,0.00,,---,0.00,677.00,VWS V14.00,2013-03-21 18:05:00,
2013-03-21 14:10:00,35.9,-22.3,29.71,West,279,6.0,10.0,7,0.00,,---,0.00,554.00,VWS V14.00,2013-03-21 18:10:00,
2013-03-21 14:15:00,36.0,-22.2,29.71,NNW,329,3.0,7.0,7,0.00,,---,0.00,591.00,VWS V14.00,2013-03-21 18:15:00,
2013-03-21 14:20:00,36.0,-28.5,29.70,NNE,28,1.0,3.0,5,0.00,,---,0.00,334.00,VWS V14.00,2013-03-21 18:20:00,
2013-03-21 14:25:00,35.9,-17.4,29.70,NE,51,4.0,5.0,9,0.00,,---,0.00,355.00,VWS V14.00,2013-03-21 18:25:00,
2013-03-21 14:30:00,35.6,-28.8,29.70,ENE,57,1.0,5.0,5,0.00,,---,0.00,387.00,VWS V14.00,2013-03-21 18:30:00,
2013-03-21 14:35:00,35.8,-25.2,29.70,NNE,22,2.0,5.0,6,0.00,,---,0.00,290.00,VWS V14.00,2013-03-21 18:35:00,
2013-03-21 14:40:00,35.9,-28.5,29.70,WNW,292,11.0,11.0,5,0.00,,---,0.00,323.00,VWS V14.00,2013-03-21 18:40:00,
2013-03-21 14:45:00,35.8,-22.3,29.70,NNW,335,7.0,14.0,7,0.00,,---,0.00,250.00,VWS V14.00,2013-03-21 18:45:00,
2013-03-21 14:50:00,35.3,-20.2,29.70,West,263,6.0,8.0,8,0.00,,---,0.00,229.00,VWS V14.00,2013-03-21 18:50:00,
2013-03-21 14:55:00,34.9,-25.9,29.70,WSW,248,2.0,3.0,6,0.00,,---,0.00,195.00,VWS V14.00,2013-03-21 18:55:00,
2013-03-21 15:00:00,34.9,-23.0,29.70,NNW,328,4.0,6.0,7,0.00,,---,0.00,179.00,VWS V14.00,2013-03-21 19:00:00,
2013-03-21 15:05:00,34.4,-18.6,29.70,WNW,286,5.0,8.0,9,0.00,,---,0.00,183.00,VWS V14.00,2013-03-21 19:05:00,
2013-03-21 15:10:00,33.7,-15.2,29.70,West,275,2.0,6.0,11,0.00,,---,0.00,185.00,VWS V14.00,2013-03-21 19:10:00,
2013-03-21 15:15:00,33.7,-11.9,29.71,WNW,294,7.0,14.0,13,0.00,,---,0.00,141.00,VWS V14.00,2013-03-21 19:15:00,
2013-03-21 15:21:00,33.4,-9.3,29.71,NW,324,2.0,5.0,15,0.00,,---,0.00,141.00,VWS V14.00,2013-03-21 19:21:00,
2013-03-21 15:26:00,33.1,-7.0,29.71,NNW,336,2.0,2.0,17,0.00,,---,0.00,118.00,VWS V14.00,2013-03-21 19:26:00,
2013-03-21 15:31:00,32.7,-7.3,29.71,North,355,0.0,1.0,17,0.00,,---,0.00,141.00,VWS V14.00,2013-03-21 19:31:00,
2013-03-21 15:36:00,32.7,-5.0,29.71,NNW,343,3.0,3.0,19,0.00,,---,0.00,141.00,VWS V14.00,2013-03-21 19:36:00,
2013-03-21 15:41:00,32.7,-5.0,29.71,NW,310,3.0,3.0,19,0.00,,---,0.00,156.00,VWS V14.00,2013-03-21 19:41:00,
2013-03-21 15:45:00,32.4,-5.2,29.71,NW,309,0.0,0.0,19,0.00,,---,0.00,162.00,VWS V14.00,2013-03-21 19:45:00,
2013-03-21 15:51:00,32.4,-4.2,29.70,NW,309,1.0,1.0,20,0.00,,---,0.00,149.00,VWS V14.00,2013-03-21 19:51:00,
2013-03-21 15:56:00,32.7,-3.9,29.70,NW,309,0.0,1.0,20,0.00,,---,0.00,190.00,VWS V14.00,2013-03-21 19:56:00,
2013-03-21 16:01:00,32.9,-4.8,29.69,NW,308,3.0,3.0,19,0.00,,---,0.00,195.00,VWS V14.00,2013-03-21 20:01:00,
2013-03-21 16:06:00,33.1,-7.0,29.69,NNE,15,0.0,0.0,17,0.00,,---,0.00,176.00,VWS V14.00,2013-03-21 20:06:00,
2013-03-21 16:11:00,33.1,-5.8,29.69,NE,44,0.0,0.0,18,0.00,,---,0.00,146.00,VWS V14.00,2013-03-21 20:11:00,
2013-03-21 16:16:00,33.2,-4.6,29.69,East,83,2.0,2.0,19,0.00,,---,0.00,142.00,VWS V14.00,2013-03-21 20:16:00,
2013-03-21 16:21:00,33.2,-5.7,29.69,East,83,0.0,0.0,18,0.00,,---,0.00,120.00,VWS V14.00,2013-03-21 20:21:00,
2013-03-21 16:26:00,33.4,-5.5,29.68,NE,47,2.0,4.0,18,0.00,,---,0.00,111.00,VWS V14.00,2013-03-21 20:26:00,
2013-03-21 16:31:00,33.4,-6.7,29.68,NE,47,0.0,2.0,17,0.00,,---,0.00,123.00,VWS V14.00,2013-03-21 20:31:00,
2013-03-21 16:36:00,33.5,-7.9,29.68,NE,48,1.0,1.0,16,0.00,,---,0.00,123.00,VWS V14.00,2013-03-21 20:36:00,
2013-03-21 16:41:00,33.5,-7.9,29.68,NE,48,3.0,3.0,16,0.00,,---,0.00,118.00,VWS V14.00,2013-03-21 20:41:00,
2013-03-21 16:46:00,33.7,-7.7,29.68,NE,48,1.0,2.0,16,0.00,,---,0.00,121.00,VWS V14.00,2013-03-21 20:46:00,
2013-03-21 16:51:00,33.8,-7.6,29.68,NE,48,1.0,3.0,16,0.00,,---,0.00,116.00,VWS V14.00,2013-03-21 20:51:00,
2013-03-21 16:56:00,33.8,-7.6,29.68,NE,55,1.0,2.0,16,0.00,,---,0.00,105.00,VWS V14.00,2013-03-21 20:56:00,
2013-03-21 17:01:00,33.8,-6.4,29.68,NE,55,1.0,1.0,17,0.00,,---,0.00,113.00,VWS V14.00,2013-03-21 21:01:00,
2013-03-21 17:06:00,34.0,-6.2,29.68,NE,55,0.0,0.0,17,0.00,,---,0.00,111.00,VWS V14.00,2013-03-21 21:06:00,
2013-03-21 17:11:00,34.0,-6.2,29.68,NE,55,0.0,0.0,17,0.00,,---,0.00,118.00,VWS V14.00,2013-03-21 21:11:00,
2013-03-21 17:16:00,34.1,-7.4,29.68,NE,55,0.0,0.0,16,0.00,,---,0.00,127.00,VWS V14.00,2013-03-21 21:16:00,
2013-03-21 17:21:00,34.1,-6.1,29.68,NE,55,0.0,0.0,17,0.00,,---,0.00,130.00,VWS V14.00,2013-03-21 21:21:00,
2013-03-21 17:26:00,34.1,-7.4,29.68,NE,55,0.0,0.0,16,0.00,,---,0.00,113.00,VWS V14.00,2013-03-21 21:26:00,
2013-03-21 17:31:00,34.1,-7.4,29.68,NE,55,0.0,0.0,16,0.00,,---,0.00,109.00,VWS V14.00,2013-03-21 21:31:00,
2013-03-21 17:36:00,34.1,-7.4,29.68,NE,55,0.0,0.0,16,0.00,,---,0.00,97.00,VWS V14.00,2013-03-21 21:36:00,
2013-03-21 17:41:00,34.0,-10.2,29.68,NE,55,1.0,2.0,14,0.00,,---,0.00,104.00,VWS V14.00,2013-03-21 21:41:00,
2013-03-21 17:46:00,33.8,-8.9,29.68,NE,55,3.0,3.0,15,0.00,,---,0.00,100.00,VWS V14.00,2013-03-21 21:46:00,
2013-03-21 17:51:00,33.8,-6.4,29.68,South,179,1.0,1.0,17,0.00,,---,0.00,76.00,VWS V14.00,2013-03-21 21:51:00,
2013-03-21 17:56:00,33.8,-6.4,29.68,South,179,0.0,0.0,17,0.00,,---,0.00,54.00,VWS V14.00,2013-03-21 21:56:00,
2013-03-21 18:01:00,33.8,-6.4,29.68,South,179,0.0,0.0,17,0.00,,---,0.00,53.00,VWS V14.00,2013-03-21 22:01:00,
2013-03-21 18:06:00,33.8,-7.6,29.68,South,169,0.0,0.0,16,0.00,,---,0.00,49.00,VWS V14.00,2013-03-21 22:06:00,
2013-03-21 18:12:00,33.8,-6.4,29.68,South,169,0.0,0.0,17,0.00,,---,0.00,47.00,VWS V14.00,2013-03-21 22:12:00,
2013-03-21 18:17:00,33.8,-7.6,29.68,South,169,2.0,2.0,16,0.00,,---,0.00,40.00,VWS V14.00,2013-03-21 22:17:00,
2013-03-21 18:21:00,34.0,-15.0,29.68,SW,218,0.0,0.0,11,0.00,,---,0.00,35.00,VWS V14.00,2013-03-21 22:21:00,
2013-03-21 18:26:00,34.0,-23.7,29.69,WNW,283,4.0,5.0,7,0.00,,---,0.00,30.00,VWS V14.00,2013-03-21 22:26:00,
2013-03-21 18:32:00,34.0,-23.7,29.69,WNW,288,2.0,3.0,7,0.00,,---,0.00,26.00,VWS V14.00,2013-03-21 22:32:00,
2013-03-21 18:37:00,34.0,-23.7,29.69,West,277,2.0,2.0,7,0.00,,---,0.00,23.00,VWS V14.00,2013-03-21 22:37:00,
2013-03-21 18:42:00,34.0,-26.6,29.69,NW,311,1.0,1.0,6,0.00,,---,0.00,18.00,VWS V14.00,2013-03-21 22:42:00,
2013-03-21 18:47:00,34.0,-23.7,29.69,WNW,285,3.0,3.0,7,0.00,,---,0.00,14.00,VWS V14.00,2013-03-21 22:47:00,
2013-03-21 18:52:00,33.8,-30.1,29.69,NW,322,3.0,4.0,5,0.00,,---,0.00,9.00,VWS V14.00,2013-03-21 22:52:00,
2013-03-21 18:57:00,33.8,-23.8,29.69,NW,306,1.0,4.0,7,0.00,,---,0.00,7.00,VWS V14.00,2013-03-21 22:57:00,
2013-03-21 19:02:00,33.7,-23.9,29.69,NW,308,6.0,8.0,7,0.00,,---,0.00,5.00,VWS V14.00,2013-03-21 23:02:00,
2013-03-21 19:07:00,33.5,-21.5,29.69,NW,321,4.0,5.0,8,0.00,,---,0.00,0.00,VWS V14.00,2013-03-21 23:07:00,
2013-03-21 19:12:00,33.4,-24.1,29.70,NNW,340,8.0,9.0,7,0.00,,---,0.00,0.00,VWS V14.00,2013-03-21 23:12:00,
2013-03-21 19:17:00,33.4,-21.6,29.70,NW,323,5.0,9.0,8,0.00,,---,0.00,0.00,VWS V14.00,2013-03-21 23:17:00,
2013-03-21 19:22:00,33.2,-21.8,29.70,WNW,300,3.0,7.0,8,0.00,,---,0.00,0.00,VWS V14.00,2013-03-21 23:22:00,
2013-03-21 19:27:00,33.2,-21.8,29.70,North,349,6.0,6.0,8,0.00,,---,0.00,0.00,VWS V14.00,2013-03-21 23:27:00,
2013-03-21 19:32:00,33.1,-19.6,29.70,NW,310,2.0,4.0,9,0.00,,---,0.00,0.00,VWS V14.00,2013-03-21 23:32:00,
2013-03-21 19:37:00,33.1,-21.9,29.70,WNW,299,6.0,8.0,8,0.00,,---,0.00,0.00,VWS V14.00,2013-03-21 23:37:00,
2013-03-21 19:42:00,32.9,-19.8,29.70,NW,317,4.0,5.0,9,0.00,,---,0.00,0.00,VWS V14.00,2013-03-21 23:42:00,
2013-03-21 19:47:00,32.8,-19.8,29.70,NW,326,2.0,5.0,9,0.00,,---,0.00,0.00,VWS V14.00,2013-03-21 23:47:00,
2013-03-21 19:52:00,32.7,-19.9,29.71,NW,315,4.0,4.0,9,0.00,,---,0.00,0.00,VWS V14.00,2013-03-21 23:52:00,
2013-03-21 19:57:00,32.5,-18.0,29.71,NNE,13,4.0,6.0,10,0.00,,---,0.00,0.00,VWS V14.00,2013-03-21 23:57:00,
2013-03-21 20:02:00,32.4,-18.1,29.71,NW,306,0.0,1.0,10,0.00,,---,0.00,0.00,VWS V14.00,2013-03-22 00:02:00,
2013-03-21 20:07:00,32.2,-18.3,29.71,NNW,333,0.0,0.0,10,0.00,,---,0.00,0.00,VWS V14.00,2013-03-22 00:07:00,
2013-03-21 20:12:00,32.1,-16.5,29.71,North,360,10.0,10.0,11,0.00,,---,0.00,0.00,VWS V14.00,2013-03-22 00:12:00,
2013-03-21 20:17:00,31.9,-16.6,29.72,NNE,30,2.0,6.0,11,0.00,,---,0.00,0.00,VWS V14.00,2013-03-22 00:17:00,
2013-03-21 20:22:00,31.8,-16.7,29.72,NNW,346,3.0,3.0,11,0.00,,---,0.00,0.00,VWS V14.00,2013-03-22 00:22:00,
2013-03-21 20:27:00,31.8,-18.6,29.72,NNE,26,5.0,10.0,10,0.00,,---,0.00,0.00,VWS V14.00,2013-03-22 00:27:00,
2013-03-21 20:32:00,31.6,-16.9,29.72,NNW,336,5.0,5.0,11,0.00,,---,0.00,0.00,VWS V14.00,2013-03-22 00:32:00,
2013-03-21 20:37:00,31.3,-15.4,29.73,NW,318,3.0,5.0,12,0.00,,---,0.00,0.00,VWS V14.00,2013-03-22 00:37:00,
2013-03-21 20:42:00,31.2,-13.9,29.73,WNW,282,10.0,10.0,13,0.00,,---,0.00,0.00,VWS V14.00,2013-03-22 00:42:00,
2013-03-21 20:47:00,31.0,-17.4,29.73,NNW,329,8.0,13.0,11,0.00,,---,0.00,0.00,VWS V14.00,2013-03-22 00:47:00,
2013-03-21 20:52:00,31.0,-15.6,29.73,NNW,333,2.0,3.0,12,0.00,,---,0.00,0.00,VWS V14.00,2013-03-22 00:52:00,
2013-03-21 20:57:00,30.9,-15.7,29.73,NNW,341,1.0,4.0,12,0.00,,---,0.00,0.00,VWS V14.00,2013-03-22 00:57:00,
2013-03-21 21:02:00,30.7,-14.3,29.73,NNW,327,3.0,4.0,13,0.00,,---,0.00,0.00,VWS V14.00,2013-03-22 01:02:00,
2013-03-21 21:07:00,30.4,-13.1,29.73,NW,304,2.0,7.0,14,0.00,,---,0.00,0.00,VWS V14.00,2013-03-22 01:07:00,
2013-03-21 21:12:00,30.1,-12.0,29.74,NNW,339,1.0,4.0,15,0.00,,---,0.00,0.00,VWS V14.00,2013-03-22 01:12:00,
2013-03-21 21:17:00,30.0,-13.4,29.73,North,349,2.0,4.0,14,0.00,,---,0.00,0.00,VWS V14.00,2013-03-22 01:17:00,
2013-03-21 21:22:00,30.0,-14.9,29.73,North,9,2.0,4.0,13,0.00,,---,0.00,0.00,VWS V14.00,2013-03-22 01:22:00,
2013-03-21 21:27:00,30.0,-13.4,29.73,NNW,340,2.0,4.0,14,0.00,,---,0.00,0.00,VWS V14.00,2013-03-22 01:27:00,
2013-03-21 21:32:00,30.0,-13.4,29.73,NE,37,3.0,6.0,14,0.00,,---,0.00,0.00,VWS V14.00,2013-03-22 01:32:00,
2013-03-21 21:37:00,29.8,-13.6,29.74,NNW,338,3.0,7.0,14,0.00,,---,0.00,0.00,VWS V14.00,2013-03-22 01:37:00,
2013-03-21 21:42:00,29.7,-12.3,29.73,North,355,4.0,10.0,15,0.00,,---,0.00,0.00,VWS V14.00,2013-03-22 01:42:00,
2013-03-21 21:47:00,29.7,-13.7,29.74,NW,323,6.0,6.0,14,0.00,,---,0.00,0.00,VWS V14.00,2013-03-22 01:47:00,
2013-03-21 21:52:00,29.7,-13.7,29.74,WNW,297,11.0,11.0,14,0.00,,---,0.00,0.00,VWS V14.00,2013-03-22 01:52:00,
2013-03-21 21:57:00,29.5,-13.8,29.74,NW,306,7.0,7.0,14,0.00,,---,0.00,0.00,VWS V14.00,2013-03-22 01:57:00,
2013-03-21 22:02:00,29.5,-15.3,29.74,NNW,335,4.0,8.0,13,0.00,,---,0.00,0.00,VWS V14.00,2013-03-22 02:02:00,
2013-03-21 22:07:00,29.5,-13.8,29.75,NW,306,0.0,3.0,14,0.00,,---,0.00,0.00,VWS V14.00,2013-03-22 02:07:00,
2013-03-21 22:12:00,29.4,-12.5,29.75,NNW,340,5.0,5.0,15,0.00,,---,0.00,0.00,VWS V14.00,2013-03-22 02:12:00,
2013-03-21 22:17:00,29.3,-12.6,29.75,West,268,6.0,7.0,15,0.00,,---,0.00,0.00,VWS V14.00,2013-03-22 02:17:00,
2013-03-21 22:22:00,29.3,-14.0,29.75,NNW,347,5.0,9.0,14,0.00,,---,0.00,0.00,VWS V14.00,2013-03-22 02:22:00,
2013-03-21 22:27:00,29.1,-14.1,29.74,WNW,300,6.0,10.0,14,0.00,,---,0.00,0.00,VWS V14.00,2013-03-22 02:27:00,
2013-03-21 22:32:00,29.1,-11.5,29.74,North,355,3.0,10.0,16,0.00,,---,0.00,0.00,VWS V14.00,2013-03-22 02:32:00,
2013-03-21 22:37:00,29.0,-14.2,29.74,NNW,336,6.0,6.0,14,0.00,,---,0.00,0.00,VWS V14.00,2013-03-22 02:37:00,
2013-03-21 22:42:00,28.8,-14.4,29.75,North,355,0.0,4.0,14,0.00,,---,0.00,0.00,VWS V14.00,2013-03-22 02:42:00,
2013-03-21 22:47:00,28.7,-13.1,29.75,NNW,329,3.0,10.0,15,0.00,,---,0.00,0.00,VWS V14.00,2013-03-22 02:47:00,
2013-03-21 22:52:00,28.7,-11.8,29.75,NW,325,1.0,3.0,16,0.00,,---,0.00,0.00,VWS V14.00,2013-03-22 02:52:00,
2013-03-21 22:57:00,28.7,-13.1,29.75,WNW,299,3.0,7.0,15,0.00,,---,0.00,0.00,VWS V14.00,2013-03-22 02:57:00,
2013-03-21 23:02:00,28.7,-13.1,29.75,NNE,33,6.0,11.0,15,0.00,,---,0.00,0.00,VWS V14.00,2013-03-22 03:02:00,
2013-03-21 23:07:00,28.7,-11.8,29.76,NNW,333,3.0,5.0,16,0.00,,---,0.00,0.00,VWS V14.00,2013-03-22 03:07:00,
2013-03-21 23:12:00,28.5,-9.6,29.76,NW,309,5.0,7.0,18,0.00,,---,0.00,0.00,VWS V14.00,2013-03-22 03:12:00,
2013-03-21 23:17:00,28.5,-10.8,29.75,North,5,3.0,8.0,17,0.00,,---,0.00,0.00,VWS V14.00,2013-03-22 03:17:00,
2013-03-21 23:22:00,28.5,-13.3,29.75,NNW,344,3.0,5.0,15,0.00,,---,0.00,0.00,VWS V14.00,2013-03-22 03:22:00,
2013-03-21 23:27:00,28.4,-10.8,29.76,NNE,15,1.0,7.0,17,0.00,,---,0.00,0.00,VWS V14.00,2013-03-22 03:27:00,
2013-03-21 23:32:00,28.2,-11.0,29.75,NW,309,5.0,5.0,17,0.00,,---,0.00,0.00,VWS V14.00,2013-03-22 03:32:00,
2013-03-21 23:37:00,27.9,-11.2,29.75,WNW,302,5.0,5.0,17,0.00,,---,0.00,0.00,VWS V14.00,2013-03-22 03:37:00,
2013-03-21 23:42:00,27.9,-10.1,29.76,NNW,342,3.0,3.0,18,0.00,,---,0.00,0.00,VWS V14.00,2013-03-22 03:42:00,
2013-03-21 23:47:00,27.8,-10.2,29.76,NW,313,2.0,3.0,18,0.00,,---,0.00,0.00,VWS V14.00,2013-03-22 03:47:00,
2013-03-21 23:52:00,27.6,-10.4,29.76,NW,326,3.0,4.0,18,0.00,,---,0.00,0.00,VWS V14.00,2013-03-22 03:52:00,
2013-03-21 23:57:00,27.6,-10.4,29.75,NW,309,11.0,11.0,18,0.00,,---,0.00,0.00,VWS V14.00,2013-03-22 03:57:00,